sensor_id;sensor_type;location;lat;lon;timestamp;temperature;humidity
73570;SHT30;61850;54.980;73.298;2023-05-20T00:01:04;11.56;56.54
73570;SHT30;61850;54.980;73.298;2023-05-20T00:03:30;11.63;56.50
73570;SHT30;61850;54.980;73.298;2023-05-20T00:05:56;11.58;56.79
73570;SHT30;61850;54.980;73.298;2023-05-20T00:08:22;11.63;56.56
73570;SHT30;61850;54.980;73.298;2023-05-20T00:10:48;11.67;56.49
73570;SHT30;61850;54.980;73.298;2023-05-20T00:13:15;11.73;56.54
73570;SHT30;61850;54.980;73.298;2023-05-20T00:15:42;11.74;56.59
73570;SHT30;61850;54.980;73.298;2023-05-20T00:18:09;11.76;56.38
73570;SHT30;61850;54.980;73.298;2023-05-20T00:20:35;11.83;56.42
73570;SHT30;61850;54.980;73.298;2023-05-20T00:23:01;11.87;56.30
73570;SHT30;61850;54.980;73.298;2023-05-20T00:25:28;11.87;56.34
73570;SHT30;61850;54.980;73.298;2023-05-20T00:27:56;11.90;56.43
73570;SHT30;61850;54.980;73.298;2023-05-20T00:30:23;11.94;56.31
73570;SHT30;61850;54.980;73.298;2023-05-20T00:32:49;11.97;56.45
73570;SHT30;61850;54.980;73.298;2023-05-20T00:35:16;12.03;56.28
73570;SHT30;61850;54.980;73.298;2023-05-20T00:37:42;12.10;56.18
73570;SHT30;61850;54.980;73.298;2023-05-20T00:40:08;12.11;56.26
73570;SHT30;61850;54.980;73.298;2023-05-20T00:42:35;12.13;56.32
73570;SHT30;61850;54.980;73.298;2023-05-20T00:45:01;12.16;56.32
73570;SHT30;61850;54.980;73.298;2023-05-20T00:47:30;12.27;56.16
73570;SHT30;61850;54.980;73.298;2023-05-20T00:49:57;12.32;56.08
73570;SHT30;61850;54.980;73.298;2023-05-20T00:52:26;12.38;55.92
73570;SHT30;61850;54.980;73.298;2023-05-20T00:54:55;12.44;55.93
73570;SHT30;61850;54.980;73.298;2023-05-20T00:57:23;12.55;55.88
73570;SHT30;61850;54.980;73.298;2023-05-20T00:59:49;12.53;56.01
73570;SHT30;61850;54.980;73.298;2023-05-20T01:02:15;12.63;55.92
73570;SHT30;61850;54.980;73.298;2023-05-20T01:04:42;12.59;55.82
73570;SHT30;61850;54.980;73.298;2023-05-20T01:07:17;12.70;55.76
73570;SHT30;61850;54.980;73.298;2023-05-20T01:09:44;12.80;55.46
73570;SHT30;61850;54.980;73.298;2023-05-20T01:15:10;12.99;55.35
73570;SHT30;61850;54.980;73.298;2023-05-20T01:17:41;13.04;55.36
73570;SHT30;61850;54.980;73.298;2023-05-20T01:20:12;13.11;55.13
73570;SHT30;61850;54.980;73.298;2023-05-20T01:22:47;13.20;55.29
73570;SHT30;61850;54.980;73.298;2023-05-20T01:25:14;13.30;54.97
73570;SHT30;61850;54.980;73.298;2023-05-20T01:27:40;13.36;54.90
73570;SHT30;61850;54.980;73.298;2023-05-20T01:30:07;13.53;54.72
73570;SHT30;61850;54.980;73.298;2023-05-20T01:32:36;13.54;54.78
73570;SHT30;61850;54.980;73.298;2023-05-20T01:35:07;13.65;54.38
73570;SHT30;61850;54.980;73.298;2023-05-20T01:37:36;13.72;54.31
73570;SHT30;61850;54.980;73.298;2023-05-20T01:40:07;13.78;54.17
73570;SHT30;61850;54.980;73.298;2023-05-20T01:42:35;13.86;54.68
73570;SHT30;61850;54.980;73.298;2023-05-20T01:45:02;13.94;54.01
73570;SHT30;61850;54.980;73.298;2023-05-20T01:47:29;13.99;54.11
73570;SHT30;61850;54.980;73.298;2023-05-20T01:49:56;14.02;54.01
73570;SHT30;61850;54.980;73.298;2023-05-20T01:52:22;14.15;53.93
73570;SHT30;61850;54.980;73.298;2023-05-20T01:54:49;14.22;53.75
73570;SHT30;61850;54.980;73.298;2023-05-20T01:57:22;14.30;53.75
73570;SHT30;61850;54.980;73.298;2023-05-20T01:59:50;14.41;53.66
73570;SHT30;61850;54.980;73.298;2023-05-20T02:02:17;14.54;53.51
73570;SHT30;61850;54.980;73.298;2023-05-20T02:04:49;14.61;53.33
73570;SHT30;61850;54.980;73.298;2023-05-20T02:07:17;14.68;53.37
73570;SHT30;61850;54.980;73.298;2023-05-20T02:09:45;14.74;53.18
73570;SHT30;61850;54.980;73.298;2023-05-20T02:12:12;14.81;53.06
73570;SHT30;61850;54.980;73.298;2023-05-20T02:14:46;14.89;53.14
73570;SHT30;61850;54.980;73.298;2023-05-20T02:17:16;14.95;52.60
73570;SHT30;61850;54.980;73.298;2023-05-20T02:19:46;14.98;52.56
73570;SHT30;61850;54.980;73.298;2023-05-20T02:22:13;15.09;52.36
73570;SHT30;61850;54.980;73.298;2023-05-20T02:24:40;15.18;52.15
73570;SHT30;61850;54.980;73.298;2023-05-20T02:27:08;15.25;51.98
73570;SHT30;61850;54.980;73.298;2023-05-20T02:29:35;15.33;51.79
73570;SHT30;61850;54.980;73.298;2023-05-20T02:32:01;15.36;51.77
73570;SHT30;61850;54.980;73.298;2023-05-20T02:34:30;15.42;51.74
73570;SHT30;61850;54.980;73.298;2023-05-20T02:36:57;15.51;51.74
73570;SHT30;61850;54.980;73.298;2023-05-20T02:39:23;15.59;51.70
73570;SHT30;61850;54.980;73.298;2023-05-20T02:41:49;15.67;51.55
73570;SHT30;61850;54.980;73.298;2023-05-20T02:44:16;15.71;51.37
73570;SHT30;61850;54.980;73.298;2023-05-20T02:46:42;15.83;51.15
73570;SHT30;61850;54.980;73.298;2023-05-20T02:49:09;15.90;51.06
73570;SHT30;61850;54.980;73.298;2023-05-20T02:51:35;15.90;51.15
73570;SHT30;61850;54.980;73.298;2023-05-20T02:54:01;15.98;50.88
73570;SHT30;61850;54.980;73.298;2023-05-20T02:56:27;16.02;50.90
73570;SHT30;61850;54.980;73.298;2023-05-20T02:58:54;16.17;50.63
73570;SHT30;61850;54.980;73.298;2023-05-20T03:01:22;16.26;50.37
73570;SHT30;61850;54.980;73.298;2023-05-20T03:03:48;16.30;50.52
73570;SHT30;61850;54.980;73.298;2023-05-20T03:06:14;16.28;49.47
73570;SHT30;61850;54.980;73.298;2023-05-20T03:08:40;16.33;49.79
73570;SHT30;61850;54.980;73.298;2023-05-20T03:11:08;16.29;49.69
73570;SHT30;61850;54.980;73.298;2023-05-20T03:13:35;16.44;49.12
73570;SHT30;61850;54.980;73.298;2023-05-20T03:16:01;16.52;49.40
73570;SHT30;61850;54.980;73.298;2023-05-20T03:18:28;16.55;49.20
73570;SHT30;61850;54.980;73.298;2023-05-20T03:20:55;16.53;48.98
73570;SHT30;61850;54.980;73.298;2023-05-20T03:23:21;16.63;48.83
73570;SHT30;61850;54.980;73.298;2023-05-20T03:25:48;16.80;48.55
73570;SHT30;61850;54.980;73.298;2023-05-20T03:28:17;16.87;48.55
73570;SHT30;61850;54.980;73.298;2023-05-20T03:30:44;16.99;48.11
73570;SHT30;61850;54.980;73.298;2023-05-20T03:33:12;17.08;48.04
73570;SHT30;61850;54.980;73.298;2023-05-20T03:35:38;17.17;48.14
73570;SHT30;61850;54.980;73.298;2023-05-20T03:38:06;17.24;48.13
73570;SHT30;61850;54.980;73.298;2023-05-20T03:40:34;17.31;47.89
73570;SHT30;61850;54.980;73.298;2023-05-20T03:43:01;17.35;47.67
73570;SHT30;61850;54.980;73.298;2023-05-20T03:45:29;17.46;47.46
73570;SHT30;61850;54.980;73.298;2023-05-20T03:48:02;17.44;47.01
73570;SHT30;61850;54.980;73.298;2023-05-20T03:50:31;17.56;46.95
73570;SHT30;61850;54.980;73.298;2023-05-20T03:52:57;17.61;46.53
73570;SHT30;61850;54.980;73.298;2023-05-20T03:55:25;17.69;46.48
73570;SHT30;61850;54.980;73.298;2023-05-20T03:57:51;17.78;46.02
73570;SHT30;61850;54.980;73.298;2023-05-20T04:00:17;17.81;46.35
73570;SHT30;61850;54.980;73.298;2023-05-20T04:02:44;17.90;46.59
73570;SHT30;61850;54.980;73.298;2023-05-20T04:05:14;18.02;45.76
73570;SHT30;61850;54.980;73.298;2023-05-20T04:07:41;18.20;45.34
73570;SHT30;61850;54.980;73.298;2023-05-20T04:10:08;18.26;44.82
73570;SHT30;61850;54.980;73.298;2023-05-20T04:12:34;18.36;44.45
73570;SHT30;61850;54.980;73.298;2023-05-20T04:15:04;18.33;44.64
73570;SHT30;61850;54.980;73.298;2023-05-20T04:17:41;18.30;44.40
73570;SHT30;61850;54.980;73.298;2023-05-20T04:20:09;18.47;44.65
73570;SHT30;61850;54.980;73.298;2023-05-20T04:22:36;18.60;44.15
73570;SHT30;61850;54.980;73.298;2023-05-20T04:25:05;18.75;42.71
73570;SHT30;61850;54.980;73.298;2023-05-20T04:27:32;18.72;42.61
73570;SHT30;61850;54.980;73.298;2023-05-20T04:30:04;18.79;42.98
73570;SHT30;61850;54.980;73.298;2023-05-20T04:32:33;18.79;42.33
73570;SHT30;61850;54.980;73.298;2023-05-20T04:35:00;18.98;42.08
73570;SHT30;61850;54.980;73.298;2023-05-20T04:37:28;19.08;41.14
73570;SHT30;61850;54.980;73.298;2023-05-20T04:39:57;19.22;40.97
73570;SHT30;61850;54.980;73.298;2023-05-20T04:42:23;19.29;40.01
73570;SHT30;61850;54.980;73.298;2023-05-20T04:44:50;19.29;40.03
73570;SHT30;61850;54.980;73.298;2023-05-20T04:47:18;19.33;40.27
73570;SHT30;61850;54.980;73.298;2023-05-20T04:49:44;19.49;40.40
73570;SHT30;61850;54.980;73.298;2023-05-20T04:52:12;19.56;39.55
73570;SHT30;61850;54.980;73.298;2023-05-20T04:54:39;19.60;38.56
73570;SHT30;61850;54.980;73.298;2023-05-20T04:57:06;19.67;38.27
73570;SHT30;61850;54.980;73.298;2023-05-20T04:59:33;19.74;38.48
73570;SHT30;61850;54.980;73.298;2023-05-20T05:01:59;19.78;38.70
73570;SHT30;61850;54.980;73.298;2023-05-20T05:04:26;19.85;37.72
73570;SHT30;61850;54.980;73.298;2023-05-20T05:06:53;19.85;38.04
73570;SHT30;61850;54.980;73.298;2023-05-20T05:09:19;19.88;37.33
73570;SHT30;61850;54.980;73.298;2023-05-20T05:11:46;19.98;37.57
73570;SHT30;61850;54.980;73.298;2023-05-20T05:14:12;20.14;37.57
73570;SHT30;61850;54.980;73.298;2023-05-20T05:16:39;19.99;37.21
73570;SHT30;61850;54.980;73.298;2023-05-20T05:19:05;19.94;37.82
73570;SHT30;61850;54.980;73.298;2023-05-20T05:21:36;19.95;38.00
73570;SHT30;61850;54.980;73.298;2023-05-20T05:24:03;19.92;38.18
73570;SHT30;61850;54.980;73.298;2023-05-20T05:26:30;20.08;38.27
73570;SHT30;61850;54.980;73.298;2023-05-20T05:28:57;20.22;38.01
73570;SHT30;61850;54.980;73.298;2023-05-20T05:31:23;20.32;38.02
73570;SHT30;61850;54.980;73.298;2023-05-20T05:33:50;20.35;37.58
73570;SHT30;61850;54.980;73.298;2023-05-20T05:36:17;20.29;37.53
73570;SHT30;61850;54.980;73.298;2023-05-20T05:38:43;20.33;37.27
73570;SHT30;61850;54.980;73.298;2023-05-20T05:41:10;20.39;37.35
73570;SHT30;61850;54.980;73.298;2023-05-20T05:43:36;20.54;37.78
73570;SHT30;61850;54.980;73.298;2023-05-20T05:46:03;20.59;38.00
73570;SHT30;61850;54.980;73.298;2023-05-20T05:48:30;20.63;37.75
73570;SHT30;61850;54.980;73.298;2023-05-20T05:50:57;20.72;38.04
73570;SHT30;61850;54.980;73.298;2023-05-20T05:53:24;20.60;37.96
73570;SHT30;61850;54.980;73.298;2023-05-20T05:55:51;20.67;38.12
73570;SHT30;61850;54.980;73.298;2023-05-20T05:58:17;20.77;38.13
73570;SHT30;61850;54.980;73.298;2023-05-20T06:00:44;20.73;37.82
73570;SHT30;61850;54.980;73.298;2023-05-20T06:03:11;20.87;38.02
73570;SHT30;61850;54.980;73.298;2023-05-20T06:05:37;20.74;37.46
73570;SHT30;61850;54.980;73.298;2023-05-20T06:08:04;20.77;37.33
73570;SHT30;61850;54.980;73.298;2023-05-20T06:10:33;20.90;37.46
73570;SHT30;61850;54.980;73.298;2023-05-20T06:12:59;20.95;37.59
73570;SHT30;61850;54.980;73.298;2023-05-20T06:15:26;21.02;37.51
73570;SHT30;61850;54.980;73.298;2023-05-20T06:17:56;21.12;36.90
73570;SHT30;61850;54.980;73.298;2023-05-20T06:20:22;21.08;37.33
73570;SHT30;61850;54.980;73.298;2023-05-20T06:22:49;20.95;37.77
73570;SHT30;61850;54.980;73.298;2023-05-20T06:25:16;21.15;37.97
73570;SHT30;61850;54.980;73.298;2023-05-20T06:27:42;21.24;37.75
73570;SHT30;61850;54.980;73.298;2023-05-20T06:30:11;21.34;37.69
73570;SHT30;61850;54.980;73.298;2023-05-20T06:32:37;21.43;37.99
73570;SHT30;61850;54.980;73.298;2023-05-20T06:35:04;21.52;37.75
73570;SHT30;61850;54.980;73.298;2023-05-20T06:37:31;21.65;37.75
73570;SHT30;61850;54.980;73.298;2023-05-20T06:39:57;21.53;38.36
73570;SHT30;61850;54.980;73.298;2023-05-20T06:42:23;21.50;38.06
73570;SHT30;61850;54.980;73.298;2023-05-20T06:45:02;21.65;38.36
73570;SHT30;61850;54.980;73.298;2023-05-20T06:47:42;21.85;38.22
73570;SHT30;61850;54.980;73.298;2023-05-20T06:50:11;21.58;38.14
73570;SHT30;61850;54.980;73.298;2023-05-20T06:52:37;21.56;38.28
73570;SHT30;61850;54.980;73.298;2023-05-20T06:55:05;21.65;38.14
73570;SHT30;61850;54.980;73.298;2023-05-20T06:57:34;21.76;38.05
73570;SHT30;61850;54.980;73.298;2023-05-20T07:00:00;21.90;38.06
73570;SHT30;61850;54.980;73.298;2023-05-20T07:02:27;22.11;37.77
73570;SHT30;61850;54.980;73.298;2023-05-20T07:04:53;22.28;37.49
73570;SHT30;61850;54.980;73.298;2023-05-20T07:07:20;22.14;37.77
73570;SHT30;61850;54.980;73.298;2023-05-20T07:09:47;22.17;37.68
73570;SHT30;61850;54.980;73.298;2023-05-20T07:12:13;22.17;37.86
73570;SHT30;61850;54.980;73.298;2023-05-20T07:14:42;22.06;37.44
73570;SHT30;61850;54.980;73.298;2023-05-20T07:17:08;22.11;37.89
73570;SHT30;61850;54.980;73.298;2023-05-20T07:19:43;22.13;37.80
73570;SHT30;61850;54.980;73.298;2023-05-20T07:22:10;22.38;37.82
73570;SHT30;61850;54.980;73.298;2023-05-20T07:25:07;22.51;37.11
73570;SHT30;61850;54.980;73.298;2023-05-20T07:27:35;22.58;37.35
73570;SHT30;61850;54.980;73.298;2023-05-20T07:30:02;22.68;37.64
73570;SHT30;61850;54.980;73.298;2023-05-20T07:32:31;22.55;37.22
73570;SHT30;61850;54.980;73.298;2023-05-20T07:35:00;22.55;37.32
73570;SHT30;61850;54.980;73.298;2023-05-20T07:37:27;22.75;37.22
73570;SHT30;61850;54.980;73.298;2023-05-20T07:39:54;22.73;37.36
73570;SHT30;61850;54.980;73.298;2023-05-20T07:42:21;22.52;37.38
73570;SHT30;61850;54.980;73.298;2023-05-20T07:44:51;22.45;37.27
73570;SHT30;61850;54.980;73.298;2023-05-20T07:47:18;22.59;37.48
73570;SHT30;61850;54.980;73.298;2023-05-20T07:49:46;22.76;37.46
73570;SHT30;61850;54.980;73.298;2023-05-20T07:52:15;22.82;37.09
73570;SHT30;61850;54.980;73.298;2023-05-20T07:54:42;22.99;36.77
73570;SHT30;61850;54.980;73.298;2023-05-20T07:57:10;22.91;37.00
73570;SHT30;61850;54.980;73.298;2023-05-20T07:59:37;23.09;36.83
73570;SHT30;61850;54.980;73.298;2023-05-20T08:02:07;23.03;37.05
73570;SHT30;61850;54.980;73.298;2023-05-20T08:04:36;22.91;37.12
73570;SHT30;61850;54.980;73.298;2023-05-20T08:07:03;23.12;37.12
73570;SHT30;61850;54.980;73.298;2023-05-20T08:09:46;23.41;36.60
73570;SHT30;61850;54.980;73.298;2023-05-20T08:12:15;23.89;36.28
73570;SHT30;61850;54.980;73.298;2023-05-20T08:14:44;24.44;35.00
73570;SHT30;61850;54.980;73.298;2023-05-20T08:17:15;25.31;34.42
73570;SHT30;61850;54.980;73.298;2023-05-20T08:19:42;25.92;34.11
73570;SHT30;61850;54.980;73.298;2023-05-20T08:22:08;25.70;34.08
73570;SHT30;61850;54.980;73.298;2023-05-20T08:24:35;25.92;34.18
73570;SHT30;61850;54.980;73.298;2023-05-20T08:27:02;26.51;33.52
73570;SHT30;61850;54.980;73.298;2023-05-20T08:29:29;26.78;32.72
73570;SHT30;61850;54.980;73.298;2023-05-20T08:31:57;27.04;32.46
73570;SHT30;61850;54.980;73.298;2023-05-20T08:34:25;27.16;32.30
73570;SHT30;61850;54.980;73.298;2023-05-20T08:36:51;27.55;32.10
73570;SHT30;61850;54.980;73.298;2023-05-20T08:39:19;28.01;31.88
73570;SHT30;61850;54.980;73.298;2023-05-20T08:41:47;28.06;31.73
73570;SHT30;61850;54.980;73.298;2023-05-20T08:44:15;28.09;31.76
73570;SHT30;61850;54.980;73.298;2023-05-20T08:46:44;28.15;31.79
73570;SHT30;61850;54.980;73.298;2023-05-20T08:49:11;28.57;31.32
73570;SHT30;61850;54.980;73.298;2023-05-20T08:51:38;28.31;31.46
73570;SHT30;61850;54.980;73.298;2023-05-20T08:54:05;28.35;31.32
73570;SHT30;61850;54.980;73.298;2023-05-20T08:56:34;28.53;30.90
73570;SHT30;61850;54.980;73.298;2023-05-20T08:59:02;28.90;30.53
73570;SHT30;61850;54.980;73.298;2023-05-20T09:01:29;29.12;30.42
73570;SHT30;61850;54.980;73.298;2023-05-20T09:03:55;28.83;30.46
73570;SHT30;61850;54.980;73.298;2023-05-20T09:06:22;29.04;30.09
73570;SHT30;61850;54.980;73.298;2023-05-20T09:08:48;28.87;30.52
73570;SHT30;61850;54.980;73.298;2023-05-20T09:11:19;28.54;30.02
73570;SHT30;61850;54.980;73.298;2023-05-20T09:13:49;27.82;30.40
73570;SHT30;61850;54.980;73.298;2023-05-20T09:16:16;28.20;30.68
73570;SHT30;61850;54.980;73.298;2023-05-20T09:18:43;28.09;30.50
73570;SHT30;61850;54.980;73.298;2023-05-20T09:21:09;28.32;30.42
73570;SHT30;61850;54.980;73.298;2023-05-20T09:23:36;28.13;31.06
73570;SHT30;61850;54.980;73.298;2023-05-20T09:26:05;28.27;30.48
73570;SHT30;61850;54.980;73.298;2023-05-20T09:28:32;28.49;30.30
73570;SHT30;61850;54.980;73.298;2023-05-20T09:31:01;28.90;30.57
73570;SHT30;61850;54.980;73.298;2023-05-20T09:33:28;29.05;30.39
73570;SHT30;61850;54.980;73.298;2023-05-20T09:36:07;28.94;30.34
73570;SHT30;61850;54.980;73.298;2023-05-20T09:38:36;29.69;29.93
73570;SHT30;61850;54.980;73.298;2023-05-20T09:41:10;29.97;30.09
73570;SHT30;61850;54.980;73.298;2023-05-20T09:43:40;29.12;30.17
73570;SHT30;61850;54.980;73.298;2023-05-20T09:46:07;28.71;30.67
73570;SHT30;61850;54.980;73.298;2023-05-20T09:48:36;27.85;31.45
73570;SHT30;61850;54.980;73.298;2023-05-20T09:51:05;28.05;31.02
73570;SHT30;61850;54.980;73.298;2023-05-20T09:53:32;28.39;30.96
73570;SHT30;61850;54.980;73.298;2023-05-20T09:55:59;28.53;31.09
73570;SHT30;61850;54.980;73.298;2023-05-20T09:58:28;28.43;30.89
73570;SHT30;61850;54.980;73.298;2023-05-20T10:00:54;28.31;31.00
73570;SHT30;61850;54.980;73.298;2023-05-20T10:03:21;27.96;31.40
73570;SHT30;61850;54.980;73.298;2023-05-20T10:16:37;30.21;29.43
73570;SHT30;61850;54.980;73.298;2023-05-20T10:19:28;30.16;28.99
73570;SHT30;61850;54.980;73.298;2023-05-20T10:22:06;29.83;29.47
73570;SHT30;61850;54.980;73.298;2023-05-20T10:24:41;30.17;29.34
73570;SHT30;61850;54.980;73.298;2023-05-20T10:27:11;29.55;29.74
73570;SHT30;61850;54.980;73.298;2023-05-20T10:32:27;30.85;28.75
73570;SHT30;61850;54.980;73.298;2023-05-20T10:34:59;31.33;28.00
73570;SHT30;61850;54.980;73.298;2023-05-20T10:37:31;31.30;27.91
73570;SHT30;61850;54.980;73.298;2023-05-20T10:40:19;30.39;28.36
73570;SHT30;61850;54.980;73.298;2023-05-20T10:42:46;31.26;28.12
73570;SHT30;61850;54.980;73.298;2023-05-20T10:45:27;30.87;27.80
73570;SHT30;61850;54.980;73.298;2023-05-20T10:47:57;30.85;27.94
73570;SHT30;61850;54.980;73.298;2023-05-20T10:50:36;31.34;27.40
73570;SHT30;61850;54.980;73.298;2023-05-20T10:53:11;31.70;26.51
73570;SHT30;61850;54.980;73.298;2023-05-20T10:55:39;31.34;27.20
73570;SHT30;61850;54.980;73.298;2023-05-20T10:58:09;31.67;27.17
73570;SHT30;61850;54.980;73.298;2023-05-20T11:00:36;32.19;26.78
73570;SHT30;61850;54.980;73.298;2023-05-20T11:03:04;32.35;26.50
73570;SHT30;61850;54.980;73.298;2023-05-20T11:05:32;32.64;26.23
73570;SHT30;61850;54.980;73.298;2023-05-20T11:08:08;32.59;26.12
73570;SHT30;61850;54.980;73.298;2023-05-20T11:10:35;32.97;26.10
73570;SHT30;61850;54.980;73.298;2023-05-20T11:13:03;33.25;26.39
73570;SHT30;61850;54.980;73.298;2023-05-20T11:15:30;32.76;26.45
73570;SHT30;61850;54.980;73.298;2023-05-20T11:18:00;32.39;26.30
73570;SHT30;61850;54.980;73.298;2023-05-20T11:20:27;32.04;26.91
73570;SHT30;61850;54.980;73.298;2023-05-20T11:22:53;31.37;27.13
73570;SHT30;61850;54.980;73.298;2023-05-20T11:25:21;30.74;27.63
73570;SHT30;61850;54.980;73.298;2023-05-20T11:27:50;30.75;27.53
73570;SHT30;61850;54.980;73.298;2023-05-20T11:30:17;31.47;27.19
73570;SHT30;61850;54.980;73.298;2023-05-20T11:33:02;31.07;27.14
73570;SHT30;61850;54.980;73.298;2023-05-20T11:35:32;31.80;26.79
73570;SHT30;61850;54.980;73.298;2023-05-20T11:38:04;31.85;26.96
73570;SHT30;61850;54.980;73.298;2023-05-20T11:40:32;31.80;26.88
73570;SHT30;61850;54.980;73.298;2023-05-20T11:43:01;31.02;27.44
73570;SHT30;61850;54.980;73.298;2023-05-20T11:45:47;31.24;27.25
73570;SHT30;61850;54.980;73.298;2023-05-20T11:48:18;31.38;30.77
73570;SHT30;61850;54.980;73.298;2023-05-20T11:50:46;31.71;27.15
73570;SHT30;61850;54.980;73.298;2023-05-20T11:53:17;31.92;26.86
73570;SHT30;61850;54.980;73.298;2023-05-20T11:55:48;32.12;26.87
73570;SHT30;61850;54.980;73.298;2023-05-20T11:58:16;32.46;26.59
73570;SHT30;61850;54.980;73.298;2023-05-20T12:00:43;32.46;28.28
73570;SHT30;61850;54.980;73.298;2023-05-20T12:03:09;32.44;26.47
73570;SHT30;61850;54.980;73.298;2023-05-20T12:05:36;32.53;27.08
73570;SHT30;61850;54.980;73.298;2023-05-20T12:08:03;32.23;26.44
73570;SHT30;61850;54.980;73.298;2023-05-20T12:10:30;31.04;27.11
73570;SHT30;61850;54.980;73.298;2023-05-20T12:12:56;30.20;27.59
73570;SHT30;61850;54.980;73.298;2023-05-20T12:15:22;28.75;28.69
73570;SHT30;61850;54.980;73.298;2023-05-20T12:17:51;28.26;29.63
73570;SHT30;61850;54.980;73.298;2023-05-20T12:20:21;29.01;28.83
73570;SHT30;61850;54.980;73.298;2023-05-20T12:22:49;28.01;29.34
73570;SHT30;61850;54.980;73.298;2023-05-20T12:25:17;26.99;29.80
73570;SHT30;61850;54.980;73.298;2023-05-20T12:27:46;26.13;30.51
73570;SHT30;61850;54.980;73.298;2023-05-20T12:30:18;25.83;31.20
73570;SHT30;61850;54.980;73.298;2023-05-20T12:32:45;26.21;30.70
73570;SHT30;61850;54.980;73.298;2023-05-20T12:35:12;25.97;31.18
73570;SHT30;61850;54.980;73.298;2023-05-20T12:37:39;25.89;31.38
73570;SHT30;61850;54.980;73.298;2023-05-20T12:40:10;26.59;30.77
73570;SHT30;61850;54.980;73.298;2023-05-20T12:42:38;26.90;30.32
73570;SHT30;61850;54.980;73.298;2023-05-20T12:45:05;26.23;30.99
73570;SHT30;61850;54.980;73.298;2023-05-20T12:47:33;25.77;31.11
73570;SHT30;61850;54.980;73.298;2023-05-20T12:50:01;25.98;31.51
73570;SHT30;61850;54.980;73.298;2023-05-20T12:52:27;26.82;30.57
73570;SHT30;61850;54.980;73.298;2023-05-20T12:54:54;26.62;30.61
73570;SHT30;61850;54.980;73.298;2023-05-20T12:57:22;26.04;31.10
73570;SHT30;61850;54.980;73.298;2023-05-20T12:59:48;26.30;30.96
73570;SHT30;61850;54.980;73.298;2023-05-20T13:02:16;26.34;30.91
73570;SHT30;61850;54.980;73.298;2023-05-20T13:04:42;26.10;30.86
73570;SHT30;61850;54.980;73.298;2023-05-20T13:07:08;25.80;31.23
73570;SHT30;61850;54.980;73.298;2023-05-20T13:09:34;25.72;31.53
73570;SHT30;61850;54.980;73.298;2023-05-20T13:12:01;25.28;31.97
73570;SHT30;61850;54.980;73.298;2023-05-20T13:14:27;25.25;31.80
73570;SHT30;61850;54.980;73.298;2023-05-20T13:16:53;25.14;31.85
73570;SHT30;61850;54.980;73.298;2023-05-20T13:19:21;25.24;31.98
73570;SHT30;61850;54.980;73.298;2023-05-20T13:21:50;25.47;31.82
73570;SHT30;61850;54.980;73.298;2023-05-20T13:24:19;25.82;31.27
73570;SHT30;61850;54.980;73.298;2023-05-20T13:26:46;25.76;31.45
73570;SHT30;61850;54.980;73.298;2023-05-20T13:29:13;25.45;31.51
73570;SHT30;61850;54.980;73.298;2023-05-20T13:31:39;25.46;32.12
73570;SHT30;61850;54.980;73.298;2023-05-20T13:34:06;25.79;31.28
73570;SHT30;61850;54.980;73.298;2023-05-20T13:36:32;25.97;31.33
73570;SHT30;61850;54.980;73.298;2023-05-20T13:38:58;26.11;31.12
73570;SHT30;61850;54.980;73.298;2023-05-20T13:41:26;26.11;30.91
73570;SHT30;61850;54.980;73.298;2023-05-20T13:43:52;25.66;31.54
73570;SHT30;61850;54.980;73.298;2023-05-20T13:46:18;25.31;31.70
73570;SHT30;61850;54.980;73.298;2023-05-20T13:48:45;24.91;32.07
73570;SHT30;61850;54.980;73.298;2023-05-20T13:51:12;24.68;32.29
73570;SHT30;61850;54.980;73.298;2023-05-20T13:53:39;24.48;32.26
73570;SHT30;61850;54.980;73.298;2023-05-20T13:56:05;24.25;32.54
73570;SHT30;61850;54.980;73.298;2023-05-20T13:58:34;23.95;32.89
73570;SHT30;61850;54.980;73.298;2023-05-20T14:01:02;23.84;33.24
73570;SHT30;61850;54.980;73.298;2023-05-20T14:03:31;23.58;33.72
73570;SHT30;61850;54.980;73.298;2023-05-20T14:05:59;23.40;33.64
73570;SHT30;61850;54.980;73.298;2023-05-20T14:08:26;23.19;34.01
73570;SHT30;61850;54.980;73.298;2023-05-20T14:10:52;22.85;34.30
73570;SHT30;61850;54.980;73.298;2023-05-20T14:13:21;22.59;34.62
73570;SHT30;61850;54.980;73.298;2023-05-20T14:15:48;22.48;34.83
73570;SHT30;61850;54.980;73.298;2023-05-20T14:18:16;22.43;35.08
73570;SHT30;61850;54.980;73.298;2023-05-20T14:20:42;22.27;35.15
73570;SHT30;61850;54.980;73.298;2023-05-20T14:23:08;22.16;35.33
73570;SHT30;61850;54.980;73.298;2023-05-20T14:25:35;22.18;35.38
73570;SHT30;61850;54.980;73.298;2023-05-20T14:28:02;22.01;35.65
73570;SHT30;61850;54.980;73.298;2023-05-20T14:30:28;21.92;35.63
73570;SHT30;61850;54.980;73.298;2023-05-20T14:32:55;21.87;35.70
73570;SHT30;61850;54.980;73.298;2023-05-20T14:35:21;21.78;35.83
73570;SHT30;61850;54.980;73.298;2023-05-20T14:37:47;21.67;35.94
73570;SHT30;61850;54.980;73.298;2023-05-20T14:40:14;21.63;35.94
73570;SHT30;61850;54.980;73.298;2023-05-20T14:42:40;21.53;36.06
73570;SHT30;61850;54.980;73.298;2023-05-20T14:45:07;21.46;36.44
73570;SHT30;61850;54.980;73.298;2023-05-20T14:47:33;21.41;36.47
73570;SHT30;61850;54.980;73.298;2023-05-20T14:49:59;21.31;36.65
73570;SHT30;61850;54.980;73.298;2023-05-20T14:52:25;21.29;36.60
73570;SHT30;61850;54.980;73.298;2023-05-20T14:54:52;21.27;36.68
73570;SHT30;61850;54.980;73.298;2023-05-20T14:57:18;21.15;37.07
73570;SHT30;61850;54.980;73.298;2023-05-20T14:59:45;21.11;37.37
73570;SHT30;61850;54.980;73.298;2023-05-20T15:02:11;21.05;37.23
73570;SHT30;61850;54.980;73.298;2023-05-20T15:04:38;20.97;37.30
73570;SHT30;61850;54.980;73.298;2023-05-20T15:07:05;20.90;37.47
73570;SHT30;61850;54.980;73.298;2023-05-20T15:09:31;20.81;37.58
73570;SHT30;61850;54.980;73.298;2023-05-20T15:11:58;20.76;37.78
73570;SHT30;61850;54.980;73.298;2023-05-20T15:14:24;20.70;37.91
73570;SHT30;61850;54.980;73.298;2023-05-20T15:16:50;20.64;37.94
73570;SHT30;61850;54.980;73.298;2023-05-20T15:19:17;20.62;37.98
73570;SHT30;61850;54.980;73.298;2023-05-20T15:21:43;20.53;38.21
73570;SHT30;61850;54.980;73.298;2023-05-20T15:24:10;20.43;38.30
73570;SHT30;61850;54.980;73.298;2023-05-20T15:26:37;20.39;38.35
73570;SHT30;61850;54.980;73.298;2023-05-20T15:29:04;20.29;38.87
73570;SHT30;61850;54.980;73.298;2023-05-20T15:31:30;20.29;38.67
73570;SHT30;61850;54.980;73.298;2023-05-20T15:33:56;20.16;38.78
73570;SHT30;61850;54.980;73.298;2023-05-20T15:36:22;20.12;38.77